CDT,Max TemperatureF,Mean TemperatureF,Min TemperatureF,Max Dew PointF,MeanDew PointF,Min DewpointF,Max Humidity, Mean Humidity, Min Humidity, Max Sea Level PressureIn, Mean Sea Level PressureIn, Min Sea Level PressureIn, Max VisibilityMiles, Mean VisibilityMiles, Min VisibilityMiles, Max Wind SpeedMPH, Mean Wind SpeedMPH, Max Gust SpeedMPH,PrecipitationIn, CloudCover, Events, WindDirDegrees
2011-10-1,53,52,50,43,39,34,71,61,54,30.31,30.26,30.18,20,19,15,18,16,37,0.00,5,,3
2011-10-2,60,50,41,45,41,34,93,68,36,30.28,30.22,30.16,20,20,20,12,7,,0.00,1,,332
2011-10-3,66,52,39,52,47,37,93,74,46,30.23,30.21,30.17,20,17,7,10,3,,0.00,1,,3
2011-10-4,73,56,39,52,46,37,94,70,31,30.32,30.27,30.22,15,11,3,6,1,,0.00,1,,253
2011-10-5,80,62,44,52,47,43,94,57,28,30.29,30.23,30.19,15,12,10,7,2,,0.00,0,,113
2011-10-6,82,64,46,55,50,45,94,61,28,30.30,30.25,30.22,15,13,10,12,2,,0.00,0,,150
2011-10-7,86,72,59,54,51,48,72,50,27,30.34,30.29,30.24,20,14,10,12,7,,0.00,3,,161
2011-10-8,82,70,59,57,53,50,82,55,32,30.35,30.31,30.27,20,13,10,14,8,,0.00,1,,166
2011-10-9,78,62,46,54,50,45,94,60,34,30.38,30.32,30.25,15,12,10,14,3,,0.00,1,,58
2011-10-10,78,64,51,54,50,45,88,61,30,30.23,30.15,30.07,15,13,10,14,7,18,0.00,5,,154
2011-10-11,80,65,50,54,51,48,94,61,34,30.06,29.99,29.93,15,13,10,8,6,,0.00,5,,118
2011-10-12,78,64,51,54,50,46,82,56,34,29.90,29.80,29.70,15,13,10,14,8,,0.00,4,,146
2011-10-13,64,62,59,59,58,55,94,90,83,29.60,29.54,29.48,10,4,2,9,7,,0.00,8,Rain,231
2011-10-14,62,56,50,45,41,37,82,56,39,29.68,29.62,29.56,20,18,10,30,15,47,0.00,3,,261
2011-10-15,62,55,48,39,35,30,71,48,31,29.88,29.84,29.75,20,19,15,28,18,40,0.00,2,,258
2011-10-16,60,55,50,48,42,34,87,65,41,29.86,29.81,29.76,20,18,7,17,5,25,0.00,5,Rain,259
2011-10-17,59,50,42,34,31,27,66,45,29,29.90,29.86,29.80,20,20,20,20,12,32,0.00,4,,253
2011-10-18,53,46,39,45,39,32,93,70,47,29.84,29.82,29.80,20,14,10,16,8,29,0.00,8,,321
2011-10-19,50,48,46,45,44,43,87,84,82,29.73,29.64,29.50,12,7,5,32,21,54,0.00,8,Rain,5
2011-10-20,46,44,42,43,40,39,93,82,76,29.86,29.64,29.46,12,8,2,23,18,39,0.00,8,Rain,294
2011-10-21,55,45,35,37,35,34,93,73,47,30.09,30.06,29.96,20,18,10,8,5,,0.00,1,,273
2011-10-22,66,50,35,45,37,32,93,61,32,30.10,30.05,30.00,20,17,12,12,5,,0.00,4,,200
2011-10-23,68,52,37,57,40,36,93,58,30,30.01,29.94,29.87,15,13,10,14,5,23,0.00,4,,226
2011-10-24,64,54,42,50,39,30,88,58,28,30.14,30.07,29.92,20,17,10,16,11,28,0.00,1,,290
2011-10-25,75,62,50,48,42,36,58,44,33,30.08,29.90,29.75,15,14,10,17,10,31,0.00,5,Rain,182
2011-10-26,51,50,48,48,46,43,88,83,76,29.94,29.90,29.82,10,10,7,17,15,30,0.00,8,Rain,349
2011-10-27,50,44,39,41,38,34,93,72,58,30.15,30.05,29.94,20,13,7,16,10,23,0.00,7,Rain,345
2011-10-28,55,44,33,39,34,27,93,64,35,30.20,30.13,30.07,12,11,10,10,3,,0.00,5,,222
2011-10-29,57,45,32,36,31,21,93,66,25,30.13,30.06,30.01,20,15,10,14,7,,0.00,2,,267
2011-10-30,59,48,37,43,34,27,82,58,31,30.13,30.05,29.98,20,14,5,23,11,39,0.00,7,Rain,178
2011-10-31,55,46,37,43,36,30,93,70,38,30.15,30.06,29.98,15,12,7,18,8,,0.00,3,,259